Impacts TAF Board INFO
FOR SITUATIONAL AWARENESS. NOT TO BE USED FOR FLIGHT PLANNING PURPOSES.
IDs:

KMIA - Miami Intl, FL, US

Issued at 1720 UTC 20 Jan 2018
Updated at 2053 UTC 20 Jan 2018
Potential Impact None Slight Moderate High
Time1953Z 20/21Z 20/22Z 20/23Z 21/00Z 21/01Z 21/02Z 21/03Z 21/04Z 21/05Z 21/06Z 21/07Z 21/08Z 21/09Z>>
Type OBS PRVL PRVL PRVL PRVL PRVL PRVL PRVL PRVL PRVL PRVL PRVL PRVL PRVL
VIS 10 >6 >6 >6 >6 >6 >6 >6 >6 >6 >6 >6 >6 >6
CIG 150 50 50 50 250 250 250 250 250 250 250 250 250 250
Cover OVC BKN BKN BKN BKN BKN BKN BKN BKN BKN BKN BKN BKN BKN
FltCat VFR VFR VFR VFR VFR VFR VFR VFR VFR VFR VFR VFR VFR VFR
WX -- -- -- -- -- -- -- -- -- -- -- -- -- --
WDir 70 100 100 100 VRB VRB VRB VRB VRB VRB VRB VRB VRB VRB
WSpd 7 9 9 9 3 3 3 3 3 3 3 3 3 3
WGst -- -- -- -- -- -- -- -- -- -- -- -- -- --

Raw TAF
KMIA 201720Z 2018/2124 10009KT P6SM SCT030 BKN050
  FM210000 VRB03KT P6SM FEW025 SCT060 BKN250
  FM211400 09011KT P6SM SCT035 BKN060
  FM211700 09015KT P6SM SCT035 BKN060


Raw METAR
KMIA 201953Z 07007KT 10SM FEW030 BKN150 OVC250 23/14 A3016 RMK AO2 SLP213 T02330144
KMIA 201853Z 11009KT 10SM FEW030 SCT050 BKN180 OVC250 23/15 A3019 RMK AO2 SLP224 T02330150
KMIA 201753Z 10009KT 10SM SCT035 BKN049 BKN180 BKN250 24/14 A3022 RMK AO2 SLP232 T02440144 10250 20161 58014

METAR Board
Radar Display
Forecast Discussion

FOR SITUATIONAL AWARENESS. NOT TO BE USED FOR FLIGHT PLANNING PURPOSES.